Time;durP1;ratioP1;P1;durP2;ratioP2;P2;SDS_P1;SDS_P2;PMS_P1;PMS_P2;Temp;Humidity;BMP_temperature;BMP_pressure;BME280_temperature;BME280_humidity;BME280_pressure;Samples;Min_cycle;Max_cycle;Signal;HPM_P1;HPM_P2
2022/10/20 00:00:44;;;;;;;6.13;4.20;;;;;;;2.45;100.00;101947.28;5082136;28;20252;-74
2022/10/20 00:03:10;;;;;;;5.57;3.87;;;;;;;2.66;100.00;101943.56;5086507;28;20190;-74
2022/10/20 00:05:37;;;;;;;5.57;3.70;;;;;;;2.78;100.00;101943.91;5086165;28;20693;-74
2022/10/20 00:08:04;;;;;;;4.97;3.80;;;;;;;2.79;100.00;101939.63;5088541;28;20233;-74
2022/10/20 00:10:30;;;;;;;5.63;3.43;;;;;;;2.80;100.00;101942.25;5089136;28;20424;-74
2022/10/20 00:12:58;;;;;;;6.97;4.03;;;;;;;2.90;100.00;101945.06;5086267;28;20262;-74
2022/10/20 00:15:24;;;;;;;5.07;3.73;;;;;;;2.93;100.00;101940.00;5087599;28;20279;-74
2022/10/20 00:17:51;;;;;;;6.73;4.00;;;;;;;2.93;100.00;101940.84;5087996;28;20202;-74
2022/10/20 00:20:17;;;;;;;5.83;3.53;;;;;;;3.10;100.00;101938.72;5088546;28;20209;-74
2022/10/20 00:22:44;;;;;;;6.73;3.90;;;;;;;3.18;100.00;101938.91;5088496;28;20198;-74
2022/10/20 00:25:10;;;;;;;5.57;3.33;;;;;;;3.21;100.00;101936.41;5083030;28;20244;-74
2022/10/20 00:27:37;;;;;;;9.67;4.00;;;;;;;3.27;100.00;101933.97;5087962;28;20210;-74
2022/10/20 00:30:05;;;;;;;5.57;3.67;;;;;;;3.29;100.00;101940.06;5088034;28;20202;-74
2022/10/20 00:32:32;;;;;;;6.33;4.27;;;;;;;3.30;100.00;101938.34;5087878;28;20202;-74
2022/10/20 00:34:58;;;;;;;7.10;3.97;;;;;;;3.41;100.00;101937.78;5086293;28;20720;-74
2022/10/20 00:37:24;;;;;;;7.37;4.07;;;;;;;3.46;100.00;101932.72;5085866;28;20192;-74
2022/10/20 00:39:51;;;;;;;4.63;3.30;;;;;;;3.41;100.00;101936.88;5087623;28;20489;-74
2022/10/20 00:42:19;;;;;;;6.87;3.50;;;;;;;3.45;100.00;101935.25;5085808;28;20599;-74
2022/10/20 00:44:52;;;;;;;6.23;3.97;;;;;;;3.55;100.00;101921.75;5087550;28;20225;-74
2022/10/20 00:47:30;;;;;;;9.57;4.20;;;;;;;3.59;100.00;101921.00;5086230;28;20202;-74
2022/10/20 00:50:03;;;;;;;5.60;3.50;;;;;;;3.28;100.00;101912.53;5087311;28;20704;-74
2022/10/20 00:52:29;;;;;;;6.60;3.77;;;;;;;3.26;100.00;101913.34;5087639;28;20194;-74
2022/10/20 00:54:56;;;;;;;6.50;3.93;;;;;;;3.27;100.00;101909.91;5086969;28;20217;-74
2022/10/20 00:57:22;;;;;;;5.83;3.90;;;;;;;3.39;100.00;101913.69;5087456;28;20205;-74
2022/10/20 00:59:49;;;;;;;9.67;4.70;;;;;;;3.32;100.00;101910.91;5084577;28;20190;-74
2022/10/20 01:02:15;;;;;;;7.93;3.90;;;;;;;3.32;100.00;101900.59;5082398;28;20202;-74
2022/10/20 01:04:44;;;;;;;8.70;4.10;;;;;;;3.34;100.00;101901.50;5087386;28;20582;-74
2022/10/20 01:07:10;;;;;;;8.00;3.80;;;;;;;3.43;100.00;101906.88;5086935;28;20213;-75
2022/10/20 01:09:38;;;;;;;8.87;4.40;;;;;;;3.43;100.00;101899.16;5083943;28;20747;-74
2022/10/20 01:12:19;;;;;;;7.13;4.03;;;;;;;3.51;100.00;101905.34;5087643;28;20201;-74
2022/10/20 01:14:54;;;;;;;10.47;4.23;;;;;;;3.46;100.00;101899.19;5076424;28;20222;-74
2022/10/20 01:17:30;;;;;;;5.07;3.40;;;;;;;3.39;100.00;101897.31;5085720;28;20212;-74
2022/10/20 01:20:22;;;;;;;7.70;3.70;;;;;;;3.35;100.00;101895.50;5087149;28;20641;-74
2022/10/20 01:23:19;;;;;;;9.10;4.57;;;;;;;3.39;100.00;101898.22;5087691;28;20686;-74
2022/10/20 01:25:56;;;;;;;9.10;3.63;;;;;;;3.44;100.00;101900.00;5084060;28;20202;-74
2022/10/20 01:28:32;;;;;;;5.80;4.10;;;;;;;3.44;100.00;101900.88;5083793;28;20225;-75
2022/10/20 01:31:03;;;;;;;7.50;3.53;;;;;;;3.26;100.00;101905.59;5082498;28;20198;-74
2022/10/20 01:33:35;;;;;;;5.60;3.47;;;;;;;3.32;100.00;101893.72;5081573;28;20204;-74
2022/10/20 01:36:07;;;;;;;7.30;3.67;;;;;;;3.20;100.00;101894.31;5086672;28;20209;-74
2022/10/20 01:38:40;;;;;;;5.87;4.00;;;;;;;3.18;100.00;101893.41;5087534;28;20538;-74
2022/10/20 01:41:14;;;;;;;6.40;3.47;;;;;;;3.11;100.00;101888.91;5088145;28;20205;-74
2022/10/20 01:43:45;;;;;;;6.13;3.77;;;;;;;2.96;100.00;101885.97;5086440;28;20232;-74
2022/10/20 01:46:14;;;;;;;6.13;3.80;;;;;;;2.81;100.00;101882.19;5086139;28;20202;-73
2022/10/20 01:48:41;;;;;;;9.83;3.67;;;;;;;2.90;100.00;101876.34;5079277;28;20202;-73
2022/10/20 01:51:09;;;;;;;11.27;3.90;;;;;;;2.84;100.00;101878.78;5083014;28;20198;-72
2022/10/20 01:53:36;;;;;;;4.97;3.30;;;;;;;2.91;100.00;101874.69;5087316;28;20280;-72
2022/10/20 01:56:04;;;;;;;6.30;3.37;;;;;;;2.81;100.00;101868.41;5086603;28;20197;-73
2022/10/20 01:58:57;;;;;;;7.93;3.57;;;;;;;2.79;100.00;101867.50;5086257;28;20281;-74
2022/10/20 02:01:37;;;;;;;5.53;3.53;;;;;;;2.80;100.00;101871.81;5086779;28;20225;-73
2022/10/20 02:04:07;;;;;;;4.53;3.20;;;;;;;2.93;100.00;101867.84;5080888;28;20717;-72
2022/10/20 02:06:42;;;;;;;4.73;3.33;;;;;;;2.70;100.00;101862.97;5085347;28;20197;-73
2022/10/20 02:09:16;;;;;;;6.20;3.90;;;;;;;2.74;100.00;101858.78;5083175;28;20194;-73
2022/10/20 02:11:48;;;;;;;5.40;3.60;;;;;;;2.73;100.00;101847.59;5089782;28;20221;-74
2022/10/20 02:14:18;;;;;;;6.27;3.50;;;;;;;2.74;100.00;101848.47;5083853;28;20229;-74
2022/10/20 02:16:49;;;;;;;5.70;3.60;;;;;;;2.69;100.00;101839.75;5086592;28;20205;-72
2022/10/20 02:19:19;;;;;;;5.47;3.80;;;;;;;2.70;100.00;101844.94;5088254;28;20574;-72
2022/10/20 02:21:47;;;;;;;5.30;3.50;;;;;;;2.71;100.00;101841.56;5086921;28;20198;-73
2022/10/20 02:24:15;;;;;;;6.43;3.90;;;;;;;2.80;100.00;101838.34;5084465;28;20678;-72
2022/10/20 02:26:43;;;;;;;5.20;3.27;;;;;;;2.73;100.00;101832.16;5085938;28;20356;-72
2022/10/20 02:29:14;;;;;;;5.50;3.67;;;;;;;2.91;100.00;101833.44;5079425;28;20198;-72
2022/10/20 02:31:43;;;;;;;5.40;3.97;;;;;;;2.96;100.00;101829.28;5067928;28;20198;-72
2022/10/20 02:34:11;;;;;;;4.50;3.37;;;;;;;2.68;100.00;101825.16;5097104;22;20214;-74
2022/10/20 02:36:39;;;;;;;8.73;3.90;;;;;;;2.55;100.00;101811.06;5084973;28;20182;-75
2022/10/20 02:39:07;;;;;;;5.83;3.87;;;;;;;2.51;100.00;101804.09;5082561;28;20196;-74
2022/10/20 02:41:34;;;;;;;6.07;4.03;;;;;;;2.51;100.00;101788.66;5085828;28;20201;-74
2022/10/20 02:44:01;;;;;;;6.30;4.27;;;;;;;2.54;100.00;101787.03;5080263;28;20224;-74
2022/10/20 02:46:27;;;;;;;5.97;4.37;;;;;;;2.65;100.00;101792.44;5086120;28;20197;-74
2022/10/20 02:48:55;;;;;;;5.83;3.77;;;;;;;2.71;100.00;101799.44;5083094;28;20222;-74
2022/10/20 02:51:21;;;;;;;10.97;4.37;;;;;;;2.83;100.00;101792.91;5083729;28;20194;-74
2022/10/20 02:53:48;;;;;;;5.83;3.87;;;;;;;2.72;100.00;101789.19;5082671;28;20763;-74
2022/10/20 02:56:15;;;;;;;9.33;3.90;;;;;;;2.82;100.00;101798.03;5080672;28;20245;-74
2022/10/20 02:58:41;;;;;;;7.50;4.17;;;;;;;2.86;100.00;101791.25;5085682;28;20194;-74
2022/10/20 03:01:08;;;;;;;8.10;4.00;;;;;;;2.73;100.00;101790.09;5083096;28;20204;-74
2022/10/20 03:03:34;;;;;;;6.83;4.00;;;;;;;2.72;100.00;101793.47;5091055;28;20201;-74
2022/10/20 03:06:09;;;;;;;6.77;4.17;;;;;;;2.75;100.00;101793.56;5088797;28;20231;-74
2022/10/20 03:08:35;;;;;;;6.13;3.77;;;;;;;2.79;100.00;101801.38;5084856;28;20577;-74
2022/10/20 03:11:04;;;;;;;8.07;4.47;;;;;;;2.77;100.00;101787.59;5088148;28;20202;-74
2022/10/20 03:13:30;;;;;;;7.70;4.30;;;;;;;2.83;100.00;101790.34;5089004;28;20205;-74
2022/10/20 03:15:57;;;;;;;6.73;3.90;;;;;;;2.82;100.00;101786.00;5086638;28;20218;-74
2022/10/20 03:18:23;;;;;;;7.80;4.33;;;;;;;2.72;100.00;101783.19;5088333;28;20229;-74
2022/10/20 03:20:51;;;;;;;8.57;4.53;;;;;;;2.67;100.00;101779.63;5086134;28;20658;-73
2022/10/20 03:23:19;;;;;;;7.10;4.63;;;;;;;2.58;100.00;101777.69;5086994;28;20207;-74
2022/10/20 03:25:45;;;;;;;8.30;4.13;;;;;;;2.53;100.00;101776.69;5088951;28;20297;-74
2022/10/20 03:28:12;;;;;;;7.57;4.10;;;;;;;2.54;100.00;101778.44;5082585;28;20218;-74
2022/10/20 03:30:39;;;;;;;5.43;4.10;;;;;;;2.50;100.00;101776.59;5087694;28;20281;-74
2022/10/20 03:33:05;;;;;;;8.37;4.60;;;;;;;2.65;100.00;101779.56;5090147;28;20225;-74
2022/10/20 03:35:32;;;;;;;7.37;3.87;;;;;;;2.69;100.00;101772.78;5086276;28;20312;-74
2022/10/20 03:37:58;;;;;;;8.03;4.87;;;;;;;2.61;100.00;101768.31;5089808;28;20670;-74
2022/10/20 03:40:26;;;;;;;7.03;4.17;;;;;;;2.49;100.00;101764.59;5088466;28;20216;-74
2022/10/20 03:42:52;;;;;;;6.63;4.70;;;;;;;2.51;100.00;101770.63;5083583;28;20196;-74
2022/10/20 03:45:18;;;;;;;10.40;4.30;;;;;;;2.45;100.00;101761.94;5083482;28;20218;-74
2022/10/20 03:47:45;;;;;;;7.97;4.57;;;;;;;2.42;100.00;101767.00;5088153;28;20218;-74
2022/10/20 03:50:11;;;;;;;6.87;4.10;;;;;;;2.44;100.00;101772.19;5089528;28;20296;-74
2022/10/20 03:52:38;;;;;;;8.23;4.73;;;;;;;2.57;100.00;101766.53;5084015;28;20629;-74
2022/10/20 03:55:05;;;;;;;5.50;3.80;;;;;;;2.52;100.00;101762.09;5086017;28;20563;-74
2022/10/20 03:57:33;;;;;;;6.53;3.63;;;;;;;2.54;100.00;101748.41;5083632;28;20206;-74
2022/10/20 03:59:59;;;;;;;6.03;4.00;;;;;;;2.56;100.00;101756.19;5082060;28;20217;-73
2022/10/20 04:02:32;;;;;;;8.57;4.43;;;;;;;2.62;100.00;101759.78;5086820;28;20206;-74
2022/10/20 04:04:59;;;;;;;12.40;4.23;;;;;;;2.61;100.00;101757.16;5079805;28;20226;-72
2022/10/20 04:07:25;;;;;;;9.00;4.60;;;;;;;2.56;100.00;101754.47;5084276;28;20221;-72
2022/10/20 04:09:52;;;;;;;5.80;4.07;;;;;;;2.63;100.00;101755.50;5083611;28;20200;-73
2022/10/20 04:12:18;;;;;;;6.23;3.93;;;;;;;2.47;100.00;101759.41;5084269;28;20248;-73
2022/10/20 04:14:46;;;;;;;7.63;3.90;;;;;;;2.46;100.00;101755.06;5086610;28;20218;-74
2022/10/20 04:17:12;;;;;;;7.27;4.63;;;;;;;2.49;100.00;101757.72;5084285;28;20198;-72
2022/10/20 04:19:38;;;;;;;7.53;4.87;;;;;;;2.49;100.00;101754.28;5083118;28;20198;-72
2022/10/20 04:22:05;;;;;;;7.30;4.20;;;;;;;2.68;100.00;101758.19;5082251;28;20247;-73
2022/10/20 04:24:31;;;;;;;7.33;4.07;;;;;;;2.63;100.00;101758.94;5084172;28;20231;-74
2022/10/20 04:26:58;;;;;;;12.50;4.70;;;;;;;2.62;100.00;101752.06;5082264;28;20382;-74
2022/10/20 04:29:24;;;;;;;5.73;3.83;;;;;;;2.68;100.00;101753.91;5086897;28;20727;-74
2022/10/20 04:31:52;;;;;;;6.90;4.57;;;;;;;2.60;100.00;101758.88;5080983;28;20206;-74
2022/10/20 04:34:19;;;;;;;8.20;4.13;;;;;;;2.57;100.00;101751.06;5083889;28;20228;-73
2022/10/20 04:36:45;;;;;;;9.13;4.20;;;;;;;2.61;100.00;101750.31;5081589;28;20198;-74
2022/10/20 04:39:12;;;;;;;7.23;4.13;;;;;;;2.57;100.00;101745.91;5084194;28;20209;-74
2022/10/20 04:41:38;;;;;;;10.23;4.87;;;;;;;2.26;100.00;101742.56;5083844;28;20673;-74
2022/10/20 04:44:05;;;;;;;6.53;4.40;;;;;;;2.35;100.00;101749.66;5083276;28;20198;-74
2022/10/20 04:46:31;;;;;;;8.50;4.77;;;;;;;2.51;100.00;101745.75;5084172;28;20608;-73
2022/10/20 04:48:59;;;;;;;6.40;4.20;;;;;;;2.48;100.00;101740.56;5081528;28;20205;-74
2022/10/20 04:51:26;;;;;;;10.20;4.93;;;;;;;2.21;100.00;101739.00;5082197;28;20206;-74
2022/10/20 04:53:53;;;;;;;7.30;4.30;;;;;;;1.98;100.00;101735.81;5083054;28;20273;-73
2022/10/20 04:56:21;;;;;;;6.43;3.83;;;;;;;1.95;100.00;101734.88;5080463;28;20296;-74
2022/10/20 04:58:48;;;;;;;8.20;4.80;;;;;;;1.79;100.00;101725.88;5084603;28;20263;-74
2022/10/20 05:01:15;;;;;;;8.30;4.47;;;;;;;1.97;100.00;101710.03;5084644;28;20198;-72
2022/10/20 05:03:41;;;;;;;8.77;4.90;;;;;;;1.88;100.00;101721.84;5080254;28;20209;-73
2022/10/20 05:06:12;;;;;;;7.53;4.20;;;;;;;1.92;100.00;101720.22;5081391;28;20499;-72
2022/10/20 05:08:38;;;;;;;9.37;4.10;;;;;;;2.03;100.00;101716.22;5084881;28;20555;-73
2022/10/20 05:11:06;;;;;;;6.27;4.57;;;;;;;2.19;100.00;101720.06;5085490;28;20201;-75
2022/10/20 05:13:32;;;;;;;8.60;5.40;;;;;;;1.94;100.00;101708.28;5082453;28;20281;-72
2022/10/20 05:15:58;;;;;;;6.07;4.13;;;;;;;1.94;100.00;101710.00;5085262;28;20209;-72
2022/10/20 05:18:25;;;;;;;7.57;4.20;;;;;;;1.87;100.00;101711.53;5084256;28;20213;-74
2022/10/20 05:20:52;;;;;;;10.50;4.87;;;;;;;1.91;100.00;101713.34;5078151;28;20203;-74
2022/10/20 05:23:20;;;;;;;8.30;5.20;;;;;;;1.85;100.00;101708.91;5083723;28;20204;-73
2022/10/20 05:25:46;;;;;;;9.67;4.73;;;;;;;1.87;100.00;101703.81;5083141;28;20601;-72
2022/10/20 05:28:13;;;;;;;7.47;4.60;;;;;;;1.92;100.00;101703.91;5079436;28;20293;-72
2022/10/20 05:30:41;;;;;;;8.43;4.87;;;;;;;1.99;100.00;101700.69;5082651;28;20284;-72
2022/10/20 05:33:08;;;;;;;9.27;5.07;;;;;;;1.99;100.00;101700.69;5081283;28;20199;-74
2022/10/20 05:35:34;;;;;;;8.07;5.00;;;;;;;2.03;100.00;101703.38;5081659;28;20234;-72
2022/10/20 05:38:00;;;;;;;9.40;4.83;;;;;;;2.05;100.00;101701.69;5081141;28;20198;-72
2022/10/20 05:40:29;;;;;;;7.73;4.73;;;;;;;2.08;100.00;101712.06;5083321;28;20230;-72
2022/10/20 05:42:56;;;;;;;10.27;5.03;;;;;;;2.14;100.00;101715.66;5077083;28;20210;-73
2022/10/20 05:45:22;;;;;;;8.63;4.87;;;;;;;2.24;100.00;101704.75;5085022;28;20771;-72
2022/10/20 05:47:49;;;;;;;10.57;5.23;;;;;;;2.27;100.00;101707.41;5081369;28;20217;-74
2022/10/20 05:50:15;;;;;;;11.50;6.23;;;;;;;2.29;100.00;101705.75;5081118;28;20226;-74
2022/10/20 05:52:42;;;;;;;10.60;5.57;;;;;;;2.26;100.00;101703.09;5084204;28;20202;-74
2022/10/20 05:55:09;;;;;;;8.20;5.37;;;;;;;2.35;100.00;101700.75;5076847;28;20313;-73
2022/10/20 05:57:37;;;;;;;11.50;6.27;;;;;;;2.39;100.00;101700.00;5085296;28;20202;-74
2022/10/20 06:00:05;;;;;;;9.20;5.37;;;;;;;2.38;100.00;101697.38;5084205;28;20646;-74
2022/10/20 06:02:37;;;;;;;10.53;5.33;;;;;;;2.38;100.00;101695.69;5082326;28;20736;-74
2022/10/20 06:05:04;;;;;;;11.10;6.30;;;;;;;2.37;100.00;101700.78;5084009;28;20218;-73
2022/10/20 06:07:31;;;;;;;10.77;5.93;;;;;;;2.41;100.00;101710.31;5083443;28;20198;-74
2022/10/20 06:09:57;;;;;;;10.43;6.43;;;;;;;2.38;100.00;101718.84;5079351;28;20850;-74
2022/10/20 06:12:24;;;;;;;17.90;7.33;;;;;;;2.39;100.00;101719.69;5082232;28;20205;-74
2022/10/20 06:14:51;;;;;;;14.10;6.77;;;;;;;2.44;100.00;101726.69;5084954;28;20218;-74
2022/10/20 06:17:18;;;;;;;13.40;5.77;;;;;;;2.46;100.00;101729.31;5084160;28;20197;-73
2022/10/20 06:19:44;;;;;;;12.33;6.33;;;;;;;2.49;100.00;101726.81;5082527;28;20221;-74
2022/10/20 06:22:12;;;;;;;13.03;6.83;;;;;;;2.53;100.00;101725.19;5083687;28;20558;-73
2022/10/20 06:24:38;;;;;;;17.10;7.00;;;;;;;2.54;100.00;101724.38;5083344;28;20284;-74
2022/10/20 06:27:05;;;;;;;10.77;6.70;;;;;;;2.55;100.00;101724.41;5082472;28;20221;-73
2022/10/20 06:29:31;;;;;;;15.20;7.43;;;;;;;2.60;100.00;101727.09;5084678;28;20717;-74
2022/10/20 06:31:59;;;;;;;13.20;7.37;;;;;;;2.69;100.00;101724.75;5083729;28;20202;-73
2022/10/20 06:34:26;;;;;;;18.73;7.57;;;;;;;2.74;100.00;101730.00;5087093;28;20225;-74
2022/10/20 06:36:52;;;;;;;15.30;7.77;;;;;;;2.73;100.00;101739.44;5089871;28;20539;-74
2022/10/20 06:39:21;;;;;;;16.60;7.47;;;;;;;2.72;100.00;101735.09;5090178;28;20190;-73
2022/10/20 06:41:49;;;;;;;13.57;7.23;;;;;;;2.80;100.00;101736.16;5087234;28;20208;-74
2022/10/20 06:44:19;;;;;;;15.03;6.80;;;;;;;2.84;100.00;101739.69;5086037;28;20750;-73
2022/10/20 06:46:45;;;;;;;15.27;8.13;;;;;;;2.90;100.00;101744.09;5088030;28;20201;-73
2022/10/20 06:49:14;;;;;;;15.87;8.30;;;;;;;2.86;100.00;101743.16;5082249;28;20218;-74
2022/10/20 06:51:40;;;;;;;13.63;7.63;;;;;;;2.95;100.00;101743.38;5090480;28;20208;-73
2022/10/20 06:54:08;;;;;;;17.03;7.77;;;;;;;2.98;100.00;101740.88;5086711;28;20422;-74
2022/10/20 06:56:36;;;;;;;17.67;7.73;;;;;;;3.10;100.00;101744.59;5086941;28;20205;-74
2022/10/20 06:59:03;;;;;;;13.90;8.10;;;;;;;3.18;100.00;101748.19;5087742;28;20210;-73
2022/10/20 07:01:31;;;;;;;16.17;8.40;;;;;;;3.20;100.00;101743.91;5086519;28;20197;-73
2022/10/20 07:03:59;;;;;;;16.03;8.10;;;;;;;3.32;100.00;101748.47;5086630;28;20201;-73
2022/10/20 07:06:28;;;;;;;18.27;9.43;;;;;;;3.34;100.00;101746.81;5083037;28;20209;-74
2022/10/20 07:08:56;;;;;;;15.80;8.17;;;;;;;3.42;100.00;101745.28;5085377;28;20232;-74
2022/10/20 07:11:24;;;;;;;17.23;8.93;;;;;;;3.51;100.00;101747.16;5086119;28;20579;-74
2022/10/20 07:13:51;;;;;;;17.67;9.30;;;;;;;3.56;100.00;101743.84;5085396;28;20285;-73
2022/10/20 07:16:19;;;;;;;18.37;9.03;;;;;;;3.58;100.00;101739.59;5088487;28;20221;-74
2022/10/20 07:18:46;;;;;;;16.17;8.87;;;;;;;3.68;100.00;101730.34;5088792;28;20613;-74
2022/10/20 07:21:14;;;;;;;20.47;9.37;;;;;;;3.73;100.00;101732.97;5085479;28;20560;-74
2022/10/20 07:23:42;;;;;;;16.33;9.17;;;;;;;3.81;100.00;101728.84;5086529;28;20210;-74
2022/10/20 07:26:12;;;;;;;19.40;10.07;;;;;;;3.93;100.00;101731.66;5084099;28;20304;-73
2022/10/20 07:28:41;;;;;;;19.27;10.10;;;;;;;4.03;100.00;101737.00;5080532;28;20227;-74
2022/10/20 07:31:10;;;;;;;16.47;9.13;;;;;;;4.11;100.00;101728.56;5083738;28;20199;-74
2022/10/20 07:33:36;;;;;;;17.50;8.97;;;;;;;4.22;100.00;101735.63;5085263;28;20557;-74
2022/10/20 07:36:11;;;;;;;15.07;8.27;;;;;;;4.30;100.00;101732.34;5087138;28;20225;-73
2022/10/20 07:38:37;;;;;;;16.30;9.40;;;;;;;4.41;100.00;101734.25;5084513;28;20442;-73
2022/10/20 07:41:05;;;;;;;16.43;9.30;;;;;;;4.50;100.00;101735.28;5084820;28;20644;-75
2022/10/20 07:43:32;;;;;;;19.57;8.97;;;;;;;4.58;100.00;101731.94;5084321;28;20203;-75
2022/10/20 07:45:58;;;;;;;15.67;9.53;;;;;;;4.66;100.00;101733.81;5082536;28;20227;-72
2022/10/20 07:48:24;;;;;;;14.77;8.70;;;;;;;4.73;100.00;101725.31;5085518;28;20217;-72
2022/10/20 07:50:51;;;;;;;18.60;9.53;;;;;;;4.84;100.00;101727.19;5081975;28;20559;-72
2022/10/20 07:53:17;;;;;;;17.77;8.87;;;;;;;4.87;100.00;101722.03;5083610;28;20589;-72
2022/10/20 07:55:44;;;;;;;17.20;9.27;;;;;;;4.93;100.00;101728.19;5083114;28;20227;-75
2022/10/20 07:58:12;;;;;;;17.63;8.83;;;;;;;5.03;100.00;101717.97;5087060;28;20206;-73
2022/10/20 08:00:39;;;;;;;17.77;9.33;;;;;;;5.16;100.00;101714.72;5083635;28;20202;-72
2022/10/20 08:03:05;;;;;;;17.10;10.30;;;;;;;5.26;100.00;101706.25;5082005;28;20198;-73
2022/10/20 08:05:32;;;;;;;16.63;9.13;;;;;;;5.40;100.00;101710.69;5082940;28;20756;-74
2022/10/20 08:07:59;;;;;;;18.40;9.73;;;;;;;5.46;100.00;101703.88;5086446;28;20235;-74
2022/10/20 08:10:26;;;;;;;16.43;9.60;;;;;;;5.57;100.00;101704.00;5087129;28;20248;-72
2022/10/20 08:12:52;;;;;;;15.57;9.90;;;;;;;5.65;100.00;101702.38;5087219;28;20505;-72
2022/10/20 08:15:20;;;;;;;12.87;8.83;;;;;;;5.74;100.00;101708.53;5086845;28;20225;-74
2022/10/20 08:17:46;;;;;;;17.07;8.87;;;;;;;5.83;100.00;101701.72;5087540;28;20217;-73
2022/10/20 08:20:12;;;;;;;16.97;9.87;;;;;;;5.95;100.00;101702.72;5080617;28;20191;-72
2022/10/20 08:22:39;;;;;;;15.53;8.07;;;;;;;6.02;100.00;101699.38;5083789;28;20666;-73
2022/10/20 08:25:06;;;;;;;15.20;9.13;;;;;;;6.13;100.00;101683.94;5084866;28;20214;-75
2022/10/20 08:27:32;;;;;;;13.53;8.93;;;;;;;6.22;100.00;101684.00;5084024;28;20201;-72
2022/10/20 08:29:59;;;;;;;11.83;7.40;;;;;;;6.25;100.00;101687.50;5084837;28;20202;-72
2022/10/20 08:32:27;;;;;;;16.50;8.70;;;;;;;6.36;100.00;101679.81;5083503;28;20290;-73
2022/10/20 08:34:53;;;;;;;17.63;8.53;;;;;;;6.44;100.00;101685.06;5081206;28;20267;-72
2022/10/20 08:37:19;;;;;;;18.37;8.73;;;;;;;6.54;100.00;101681.66;5083513;28;20202;-73
2022/10/20 08:39:45;;;;;;;16.27;9.60;;;;;;;6.63;100.00;101673.97;5082942;28;20201;-73
2022/10/20 08:42:12;;;;;;;15.10;8.63;;;;;;;6.75;100.00;101667.13;5084808;28;20214;-75
2022/10/20 08:44:41;;;;;;;14.80;9.00;;;;;;;6.83;100.00;101668.06;5082947;28;20657;-73
2022/10/20 08:47:20;;;;;;;14.83;9.07;;;;;;;7.04;100.00;101666.44;5085829;28;20198;-73
2022/10/20 08:49:48;;;;;;;17.07;8.57;;;;;;;7.13;100.00;101653.50;5081310;28;20669;-72
2022/10/20 08:52:16;;;;;;;17.70;9.60;;;;;;;7.17;100.00;101643.13;5083347;28;20205;-73
2022/10/20 08:54:43;;;;;;;14.57;8.93;;;;;;;7.29;100.00;101644.91;5078321;28;20221;-74
2022/10/20 08:57:21;;;;;;;15.77;9.23;;;;;;;7.40;100.00;101647.56;5078903;28;20628;-72
2022/10/20 08:59:50;;;;;;;16.13;9.33;;;;;;;7.45;100.00;101642.38;5085053;28;20726;-73
2022/10/20 09:02:17;;;;;;;17.87;10.07;;;;;;;7.50;100.00;101644.13;5083857;28;20200;-73
2022/10/20 09:04:50;;;;;;;17.87;9.53;;;;;;;7.60;100.00;101647.63;5083490;28;20906;-72
2022/10/20 09:07:24;;;;;;;16.93;9.40;;;;;;;7.72;100.00;101646.75;5084520;28;20204;-72
2022/10/20 09:09:52;;;;;;;16.47;8.67;;;;;;;7.78;100.00;101639.88;5081578;28;20213;-75
2022/10/20 09:12:19;;;;;;;17.30;9.77;;;;;;;7.85;100.00;101634.69;5082613;28;20214;-72
2022/10/20 09:14:46;;;;;;;13.50;8.57;;;;;;;7.97;100.00;101637.31;5084508;28;20256;-73
2022/10/20 09:17:15;;;;;;;16.07;8.90;;;;;;;8.06;100.00;101639.03;5085410;28;20205;-73
2022/10/20 09:19:47;;;;;;;15.40;8.60;;;;;;;8.18;100.00;101630.34;5085306;28;20207;-73
2022/10/20 09:22:16;;;;;;;18.17;8.63;;;;;;;8.32;100.00;101631.25;5085472;28;20202;-73
2022/10/20 09:24:43;;;;;;;14.57;8.17;;;;;;;8.44;100.00;101639.06;5083086;28;20227;-72
2022/10/20 09:27:20;;;;;;;11.50;8.07;;;;;;;8.47;100.00;101628.63;5079147;28;20225;-73
2022/10/20 09:29:47;;;;;;;14.80;8.37;;;;;;;8.52;100.00;101619.09;5084213;28;20210;-74
2022/10/20 09:32:18;;;;;;;14.73;8.07;;;;;;;8.62;100.00;101624.28;5081807;28;20658;-74
2022/10/20 09:34:45;;;;;;;15.93;8.27;;;;;;;8.70;100.00;101622.53;5082676;28;20235;-75
2022/10/20 09:37:15;;;;;;;12.57;7.57;;;;;;;8.82;100.00;101624.25;5082226;28;20204;-72
2022/10/20 09:39:52;;;;;;;19.13;7.60;;;;;;;8.87;100.00;101623.34;5082299;28;20196;-74
2022/10/20 09:42:22;;;;;;;12.33;7.33;;;;;;;8.96;100.00;101612.06;5082587;28;20532;-73
2022/10/20 09:44:52;;;;;;;15.63;7.67;;;;;;;9.05;100.00;101613.75;5080560;28;20220;-73
2022/10/20 09:47:21;;;;;;;11.43;8.30;;;;;;;9.14;100.00;101599.84;5082681;28;20416;-73
2022/10/20 09:49:54;;;;;;;13.30;8.23;;;;;;;9.18;100.00;101596.34;5081980;28;21116;-72
2022/10/20 09:52:23;;;;;;;17.40;9.70;;;;;;;9.20;100.00;101592.00;5080122;28;20225;-72
2022/10/20 09:54:59;;;;;;;15.70;8.27;;;;;;;9.22;100.00;101592.88;5084882;28;20240;-74
2022/10/20 09:57:26;;;;;;;16.67;7.80;;;;;;;9.34;100.00;101591.94;5081927;28;20201;-73
2022/10/20 09:59:55;;;;;;;14.80;8.63;;;;;;;9.39;100.00;101584.97;5079830;28;20284;-72
2022/10/20 10:02:31;;;;;;;10.90;7.10;;;;;;;9.51;100.00;101586.63;5079268;28;20213;-74
2022/10/20 10:05:14;;;;;;;12.03;7.93;;;;;;;9.60;100.00;101583.97;5079705;28;20229;-73
2022/10/20 10:07:41;;;;;;;12.60;6.87;;;;;;;9.66;100.00;101583.94;5075500;28;20280;-75
2022/10/20 10:10:27;;;;;;;12.03;7.47;;;;;;;9.67;100.00;101577.84;5081969;28;20206;-73
2022/10/20 10:12:55;;;;;;;11.77;7.13;;;;;;;9.75;100.00;101576.03;5080372;28;20570;-73
2022/10/20 10:15:28;;;;;;;15.40;7.07;;;;;;;9.88;100.00;101570.75;5084180;28;20247;-72
2022/10/20 10:17:56;;;;;;;12.80;7.70;;;;;;;9.97;100.00;101562.84;5080306;28;20194;-73
2022/10/20 10:20:32;;;;;;;11.97;7.40;;;;;;;10.02;100.00;101571.47;5083902;28;20201;-73
2022/10/20 10:23:17;;;;;;;11.63;7.43;;;;;;;10.07;100.00;101566.25;5079849;28;20198;-72
2022/10/20 10:25:45;;;;;;;11.57;7.27;;;;;;;10.02;100.00;101563.66;5078649;28;20224;-74
2022/10/20 10:28:23;;;;;;;12.70;7.40;;;;;;;10.12;100.00;101565.31;5080234;28;20754;-73
2022/10/20 10:31:04;;;;;;;14.47;6.83;;;;;;;10.14;100.00;101566.16;5084968;28;20301;-72
2022/10/20 10:33:31;;;;;;;13.07;7.20;;;;;;;10.23;100.00;101552.19;5078483;28;20210;-73
2022/10/20 10:36:03;;;;;;;16.60;6.80;;;;;;;10.31;100.00;101557.34;5079850;28;20711;-76
2022/10/20 10:38:30;;;;;;;13.37;7.20;;;;;;;10.36;100.00;101555.53;5082667;28;20210;-72
2022/10/20 10:41:09;;;;;;;10.80;6.43;;;;;;;10.35;100.00;101546.03;5083299;28;20254;-73
2022/10/20 10:43:45;;;;;;;16.77;8.27;;;;;;;10.39;100.00;101551.16;5080179;28;20201;-73
2022/10/20 10:46:17;;;;;;;10.67;7.07;;;;;;;10.37;100.00;101542.50;5082395;28;20711;-72
2022/10/20 10:49:06;;;;;;;9.97;6.03;;;;;;;10.47;100.00;101539.81;5080464;28;20217;-73
2022/10/20 10:51:48;;;;;;;15.93;6.90;;;;;;;10.49;100.00;101528.47;5077556;28;20207;-75
2022/10/20 10:54:28;;;;;;;10.67;6.60;;;;;;;10.55;100.00;101540.56;5077948;28;20202;-73
2022/10/20 10:57:00;;;;;;;12.33;6.00;;;;;;;10.67;100.00;101539.56;5083324;28;20206;-72
2022/10/20 10:59:32;;;;;;;10.27;5.23;;;;;;;10.75;100.00;101536.00;5081212;28;20203;-73
2022/10/20 11:02:17;;;;;;;6.10;3.27;;;;;;;10.76;100.00;101529.03;5082600;28;20192;-73
2022/10/20 11:05:20;;;;;;;4.27;2.73;;;;;;;10.79;100.00;101513.34;5081444;28;20441;-73
2022/10/20 11:07:55;;;;;;;4.03;2.53;;;;;;;10.87;100.00;101508.00;5077259;28;20215;-73
2022/10/20 11:10:27;;;;;;;2.33;2.03;;;;;;;10.90;100.00;101493.19;5082749;28;20226;-72
2022/10/20 11:13:17;;;;;;;2.17;1.97;;;;;;;10.92;100.00;101486.22;5082203;28;20199;-72
2022/10/20 11:15:54;;;;;;;4.10;2.13;;;;;;;10.95;100.00;101475.72;5079159;28;20212;-72
2022/10/20 11:18:40;;;;;;;5.03;1.97;;;;;;;11.05;100.00;101484.28;5081572;28;20214;-73
2022/10/20 11:21:20;;;;;;;5.47;2.33;;;;;;;11.13;100.00;101477.22;5080975;28;20200;-73
2022/10/20 11:24:00;;;;;;;2.40;2.00;;;;;;;11.10;100.00;101459.00;5086160;28;20238;-73
2022/10/20 11:26:33;;;;;;;4.50;2.13;;;;;;;11.17;100.00;101462.38;5081047;28;20204;-75
2022/10/20 11:29:04;;;;;;;2.40;2.20;;;;;;;11.31;100.00;101451.69;5085748;28;20219;-73